Time;durP1;ratioP1;P1;durP2;ratioP2;P2;SDS_P1;SDS_P2;PMS_P1;PMS_P2;Temp;Humidity;BMP_temperature;BMP_pressure;BME280_temperature;BME280_humidity;BME280_pressure;Samples;Min_cycle;Max_cycle;Signal;HPM_P1;HPM_P2
2022/06/11 00:01:55;;;;;;;9.65;4.88;;;19.20;99.90;;;;;;4880422;29;20072;-89
2022/06/11 00:04:38;;;;;;;10.30;5.80;;;19.20;99.90;;;;;;4878661;29;20382;-90
2022/06/11 00:07:11;;;;;;;10.27;6.10;;;19.30;99.90;;;;;;4877875;29;20064;-85
2022/06/11 00:09:39;;;;;;;8.93;5.45;;;19.30;99.90;;;;;;4877333;29;20064;-86
2022/06/11 00:12:11;;;;;;;7.88;5.38;;;19.20;99.90;;;;;;4879633;29;20057;-90
2022/06/11 00:14:40;;;;;;;9.88;5.90;;;19.30;99.90;;;;;;4878716;29;20120;-88
2022/06/11 00:17:11;;;;;;;10.13;6.20;;;19.10;99.90;;;;;;4879270;29;20045;-79
2022/06/11 00:19:40;;;;;;;9.15;6.18;;;19.10;99.90;;;;;;4879752;29;20052;-93
2022/06/11 00:22:08;;;;;;;9.15;5.68;;;19.20;99.90;;;;;;4863683;29;20056;-83
2022/06/11 00:24:39;;;;;;;8.45;5.05;;;19.10;99.90;;;;;;4878612;29;20064;-87
2022/06/11 00:27:08;;;;;;;10.15;6.00;;;19.20;99.90;;;;;;4877383;29;20422;-85
2022/06/11 00:29:38;;;;;;;8.23;5.60;;;19.20;99.90;;;;;;4878678;29;20048;-87
2022/06/11 00:32:10;;;;;;;9.00;6.07;;;19.10;99.90;;;;;;4879428;29;20056;-88
2022/06/11 00:34:40;;;;;;;8.98;5.88;;;19.20;99.90;;;;;;4877594;29;20057;-85
2022/06/11 00:37:09;;;;;;;8.82;5.30;;;19.20;99.90;;;;;;4879117;29;20037;-85
2022/06/11 00:39:38;;;;;;;9.52;5.93;;;19.20;99.90;;;;;;4862278;29;20051;-89
2022/06/11 00:42:15;;;;;;;7.82;5.65;;;19.20;99.90;;;;;;4878443;29;20045;-89
2022/06/11 00:44:44;;;;;;;8.70;5.53;;;19.20;99.90;;;;;;4865086;29;20483;-85
2022/06/11 00:47:22;;;;;;;9.55;4.78;;;19.10;99.90;;;;;;4861153;29;20057;-85
2022/06/11 00:49:57;;;;;;;7.45;4.63;;;19.10;99.90;;;;;;4860254;29;20428;-89
2022/06/11 00:52:36;;;;;;;7.20;4.55;;;19.10;99.90;;;;;;4859979;29;20410;-81
2022/06/11 00:55:20;;;;;;;7.15;3.97;;;19.10;99.90;;;;;;4859798;29;20102;-89
2022/06/11 00:57:56;;;;;;;10.13;6.28;;;19.10;99.90;;;;;;4859917;29;20479;-83
2022/06/11 01:00:28;;;;;;;6.25;3.92;;;19.30;99.90;;;;;;4859863;29;20098;-83
2022/06/11 01:02:57;;;;;;;7.53;4.60;;;19.40;99.90;;;;;;4858360;29;20102;-86
2022/06/11 01:05:29;;;;;;;7.97;5.00;;;19.30;99.90;;;;;;4859735;29;20050;-87
2022/06/11 01:08:16;;;;;;;9.50;5.13;;;19.30;99.90;;;;;;4859161;29;20133;-79
2022/06/11 01:10:55;;;;;;;10.02;5.80;;;19.20;99.90;;;;;;4858978;29;20045;-87
2022/06/11 01:14:07;;;;;;;8.98;4.75;;;19.20;99.90;;;;;;4860357;29;20502;-90
2022/06/11 01:16:58;;;;;;;9.18;5.20;;;19.20;99.90;;;;;;4834269;29;20073;-84
2022/06/11 01:19:48;;;;;;;10.18;5.00;;;19.20;99.90;;;;;;4860485;29;20060;-88
2022/06/11 01:22:49;;;;;;;9.52;4.95;;;18.90;99.90;;;;;;4861131;29;20090;-87
2022/06/11 01:25:38;;;;;;;7.35;5.05;;;18.90;99.90;;;;;;4860696;29;20450;-92
2022/06/11 01:28:54;;;;;;;9.13;4.88;;;19.10;99.90;;;;;;4860436;29;20073;-88
2022/06/11 01:31:35;;;;;;;6.85;4.78;;;19.10;99.90;;;;;;4849192;29;20053;-91
2022/06/11 01:34:10;;;;;;;8.77;5.07;;;19.10;99.90;;;;;;4860882;29;20045;-83
2022/06/11 01:36:44;;;;;;;11.45;5.55;;;19.20;99.90;;;;;;4859902;29;20041;-87
2022/06/11 01:39:41;;;;;;;9.38;4.85;;;19.20;99.90;;;;;;4859879;29;20045;-86
2022/06/11 01:42:18;;;;;;;10.93;5.18;;;19.20;99.90;;;;;;4847199;29;20061;-86
2022/06/11 01:44:57;;;;;;;10.68;5.10;;;19.20;99.90;;;;;;4873410;29;20112;-85
2022/06/11 01:47:25;;;;;;;12.65;5.22;;;19.20;99.90;;;;;;4880983;29;20053;-86
2022/06/11 01:49:52;;;;;;;9.00;5.18;;;19.20;99.90;;;;;;4881513;29;20083;-81
2022/06/11 01:52:45;;;;;;;8.95;5.13;;;19.30;99.90;;;;;;4880902;29;20465;-83
2022/06/11 01:55:19;;;;;;;10.40;5.30;;;19.20;99.90;;;;;;4879576;29;20585;-83
2022/06/11 01:57:49;;;;;;;6.93;4.85;;;19.00;99.90;;;;;;4880735;29;20418;-84
2022/06/11 02:00:34;;;;;;;8.15;4.72;;;18.80;99.90;;;;;;4880994;29;20611;-85
2022/06/11 02:03:06;;;;;;;8.52;5.43;;;18.90;99.90;;;;;;4880921;29;20047;-83
2022/06/11 02:06:11;;;;;;;8.35;4.85;;;18.90;99.90;;;;;;4881179;29;20049;-88
2022/06/11 02:08:51;;;;;;;7.07;4.65;;;18.90;99.90;;;;;;4880866;29;20078;-87
2022/06/11 02:11:41;;;;;;;12.07;5.50;;;18.90;99.90;;;;;;4881223;29;20524;-78
2022/06/11 02:14:15;;;;;;;;;;;18.90;99.90;;;;;;4875051;29;20053;-80
2022/06/11 02:17:10;;;;;;;11.18;5.15;;;18.90;99.90;;;;;;4881383;29;19971;-89
2022/06/11 02:19:44;;;;;;;8.75;4.78;;;18.70;99.90;;;;;;4881396;29;20081;-86
2022/06/11 02:22:30;;;;;;;8.68;5.05;;;18.50;99.90;;;;;;4880727;29;20071;-88
2022/06/11 02:25:07;;;;;;;7.25;4.75;;;18.40;99.90;;;;;;4881589;29;20409;-89
2022/06/11 02:27:37;;;;;;;6.15;4.40;;;18.40;99.90;;;;;;4881187;29;20192;-87
2022/06/11 02:30:09;;;;;;;5.78;4.13;;;18.50;99.90;;;;;;4881392;29;20136;-87
2022/06/11 02:32:37;;;;;;;7.13;4.60;;;18.50;99.90;;;;;;4880953;29;20045;-87
2022/06/11 02:35:09;;;;;;;7.05;4.63;;;18.50;99.90;;;;;;4880904;29;20141;-87
2022/06/11 02:37:44;;;;;;;6.15;4.20;;;18.60;99.90;;;;;;4880579;29;20068;-85
2022/06/11 02:40:19;;;;;;;7.15;4.10;;;18.70;99.90;;;;;;4880981;29;20045;-87
2022/06/11 02:42:47;;;;;;;6.25;4.30;;;18.70;99.90;;;;;;4880485;29;20041;-88
2022/06/11 02:45:16;;;;;;;7.00;4.38;;;18.70;99.90;;;;;;4865859;29;20053;-86
2022/06/11 02:47:45;;;;;;;6.60;4.40;;;18.70;99.90;;;;;;4861608;29;20129;-86
2022/06/11 02:50:20;;;;;;;6.40;3.90;;;18.70;99.90;;;;;;4862253;29;20076;-88
2022/06/11 02:52:48;;;;;;;10.02;4.53;;;18.80;99.90;;;;;;4861358;29;20068;-88
2022/06/11 02:55:15;;;;;;;7.43;4.10;;;19.00;99.90;;;;;;4861724;29;20054;-81
2022/06/11 02:57:43;;;;;;;7.68;4.47;;;18.90;99.90;;;;;;4861079;29;20133;-88
2022/06/11 03:00:19;;;;;;;7.00;4.15;;;19.00;99.90;;;;;;4862320;29;20093;-87
2022/06/11 03:02:48;;;;;;;6.65;4.38;;;19.00;99.90;;;;;;4862022;29;20128;-89
2022/06/11 03:05:19;;;;;;;7.82;4.07;;;18.90;99.90;;;;;;4861662;29;20121;-82
2022/06/11 03:07:48;;;;;;;7.10;4.10;;;18.90;99.90;;;;;;4860064;29;20077;-89
2022/06/11 03:10:18;;;;;;;5.45;3.90;;;18.90;99.90;;;;;;4860130;29;20081;-88
2022/06/11 03:12:46;;;;;;;6.72;3.50;;;18.80;99.90;;;;;;4859513;29;20140;-83
2022/06/11 03:15:15;;;;;;;8.50;3.78;;;18.80;99.90;;;;;;4860356;29;20082;-84
2022/06/11 03:17:45;;;;;;;6.33;3.63;;;18.80;99.90;;;;;;4860938;29;20458;-80
2022/06/11 03:20:15;;;;;;;4.70;3.20;;;18.80;99.90;;;;;;4861196;29;20120;-86
2022/06/11 03:22:43;;;;;;;5.43;3.50;;;18.80;99.90;;;;;;4860797;29;20177;-86
2022/06/11 03:25:12;;;;;;;6.07;3.72;;;18.80;99.90;;;;;;4861002;29;20459;-87
2022/06/11 03:27:40;;;;;;;6.47;3.80;;;18.80;99.90;;;;;;4861867;29;20448;-87
2022/06/11 03:30:09;;;;;;;5.68;3.70;;;18.70;99.90;;;;;;4861713;29;20125;-82
2022/06/11 03:32:37;;;;;;;6.10;3.65;;;18.80;99.90;;;;;;4861128;29;20455;-85
2022/06/11 03:35:05;;;;;;;6.55;3.40;;;18.90;99.90;;;;;;4861352;29;20481;-88
2022/06/11 03:37:33;;;;;;;5.70;3.75;;;18.90;99.90;;;;;;4860941;29;20490;-83
2022/06/11 03:40:01;;;;;;;6.50;4.03;;;18.90;99.90;;;;;;4860661;29;20046;-89
2022/06/11 03:42:29;;;;;;;5.90;3.65;;;19.00;99.90;;;;;;4860534;29;20042;-79
2022/06/11 03:44:56;;;;;;;8.40;3.90;;;19.00;99.90;;;;;;4871244;29;20124;-79
2022/06/11 03:47:23;;;;;;;6.05;3.70;;;18.90;99.90;;;;;;4879134;29;20073;-79
2022/06/11 03:49:51;;;;;;;5.57;3.67;;;18.80;99.90;;;;;;4878787;29;20045;-80
2022/06/11 03:52:18;;;;;;;6.07;3.65;;;18.70;99.90;;;;;;4878414;29;20501;-81
2022/06/11 03:54:47;;;;;;;6.30;4.05;;;18.60;99.90;;;;;;4879066;29;20534;-83
2022/06/11 03:57:15;;;;;;;5.25;3.35;;;18.70;99.90;;;;;;4879236;29;20073;-78
2022/06/11 03:59:43;;;;;;;5.03;3.50;;;18.70;99.90;;;;;;4877638;29;20553;-88
2022/06/11 04:02:10;;;;;;;4.80;3.45;;;18.70;99.90;;;;;;4879815;29;20048;-82
2022/06/11 04:04:37;;;;;;;5.28;3.33;;;18.60;99.90;;;;;;4878708;29;20510;-80
2022/06/11 04:07:05;;;;;;;7.38;3.92;;;18.70;99.90;;;;;;4878527;29;20423;-79
2022/06/11 04:09:36;;;;;;;5.65;3.63;;;18.70;99.90;;;;;;4877813;29;20068;-81
2022/06/11 04:12:05;;;;;;;;;;;18.60;99.90;;;;;;4880844;29;20088;-83
2022/06/11 04:14:32;;;;;;;6.75;4.07;;;18.60;99.90;;;;;;4880262;29;20308;-88
2022/06/11 04:17:07;;;;;;;5.80;3.53;;;18.50;99.90;;;;;;4880038;29;20049;-88
2022/06/11 04:19:38;;;;;;;5.10;3.38;;;18.50;99.90;;;;;;4879413;29;20502;-87
2022/06/11 04:22:06;;;;;;;6.18;3.28;;;18.40;99.90;;;;;;4880230;29;20053;-84
2022/06/11 04:24:34;;;;;;;7.35;3.90;;;18.40;99.90;;;;;;4879254;29;20061;-87
2022/06/11 04:27:05;;;;;;;7.03;4.13;;;18.40;99.90;;;;;;4879037;29;20128;-80
2022/06/11 04:29:35;;;;;;;5.68;3.55;;;18.40;99.90;;;;;;4878309;29;20462;-87
2022/06/11 04:32:06;;;;;;;6.65;3.40;;;18.50;99.90;;;;;;4879277;29;20037;-86
2022/06/11 04:34:34;;;;;;;5.15;3.40;;;18.50;99.90;;;;;;4878333;29;20073;-86
2022/06/11 04:37:02;;;;;;;5.45;3.67;;;18.60;99.90;;;;;;4878371;29;20093;-82
2022/06/11 04:39:32;;;;;;;6.95;3.25;;;18.60;99.90;;;;;;4878118;29;20454;-83
2022/06/11 04:42:00;;;;;;;5.97;3.85;;;18.60;99.90;;;;;;4877025;29;20117;-80
2022/06/11 04:44:28;;;;;;;5.57;3.58;;;18.60;99.90;;;;;;4878878;29;20787;-89
2022/06/11 04:46:56;;;;;;;5.40;3.45;;;18.60;99.90;;;;;;4879650;29;20450;-82
2022/06/11 04:49:25;;;;;;;5.32;3.40;;;18.50;99.90;;;;;;4878751;29;20097;-85
2022/06/11 04:51:52;;;;;;;5.38;3.70;;;18.50;99.90;;;;;;4878838;29;20049;-79
2022/06/11 04:54:20;;;;;;;5.80;3.28;;;18.60;99.90;;;;;;4879251;29;20048;-77
2022/06/11 04:56:48;;;;;;;5.93;3.65;;;18.60;99.90;;;;;;4879250;29;20045;-84
2022/06/11 04:59:15;;;;;;;5.35;3.75;;;18.60;99.90;;;;;;4878620;29;20449;-86
2022/06/11 05:01:43;;;;;;;5.40;3.75;;;18.60;99.90;;;;;;4878734;29;20044;-79
2022/06/11 05:04:12;;;;;;;5.90;3.50;;;18.60;99.90;;;;;;4878204;29;20071;-91
2022/06/11 05:06:43;;;;;;;5.22;3.20;;;18.60;99.90;;;;;;4878945;29;20458;-88
2022/06/11 05:09:14;;;;;;;5.72;3.83;;;18.70;99.90;;;;;;4878704;29;20069;-89
2022/06/11 05:11:45;;;;;;;6.32;3.92;;;18.70;99.90;;;;;;4878609;29;20140;-81
2022/06/11 05:14:13;;;;;;;5.90;3.50;;;18.70;99.90;;;;;;4879052;29;20438;-87
2022/06/11 05:16:43;;;;;;;4.90;3.40;;;18.70;99.90;;;;;;4879249;29;20068;-89
2022/06/11 05:19:16;;;;;;;5.43;3.47;;;18.70;99.90;;;;;;4877950;29;20593;-87
2022/06/11 05:21:45;;;;;;;4.70;3.38;;;18.80;99.90;;;;;;4883349;29;20121;-81
2022/06/11 05:24:16;;;;;;;6.13;3.35;;;18.80;99.90;;;;;;4882153;29;20057;-90
2022/06/11 05:26:49;;;;;;;5.28;3.33;;;18.70;99.90;;;;;;4882875;29;20517;-88
2022/06/11 05:29:35;;;;;;;5.53;3.60;;;18.80;99.90;;;;;;4883015;29;20383;-80
2022/06/11 05:32:03;;;;;;;6.15;3.33;;;18.90;99.90;;;;;;4883675;29;20418;-90
2022/06/11 05:34:30;;;;;;;6.35;3.45;;;18.80;99.90;;;;;;4883085;29;20114;-89
2022/06/11 05:36:59;;;;;;;5.80;3.70;;;18.90;99.90;;;;;;4883147;29;20045;-93
2022/06/11 05:39:28;;;;;;;4.88;3.40;;;19.00;99.90;;;;;;4883331;29;20428;-90
2022/06/11 05:41:55;;;;;;;6.50;3.20;;;19.00;99.90;;;;;;4883577;29;20056;-83
2022/06/11 05:44:23;;;;;;;6.10;3.60;;;19.00;99.90;;;;;;4882370;29;20076;-90
2022/06/11 05:46:52;;;;;;;6.35;3.33;;;18.90;99.90;;;;;;4882315;29;20076;-83
2022/06/11 05:49:28;;;;;;;5.18;3.50;;;19.00;99.90;;;;;;4881307;29;20127;-85
2022/06/11 05:52:01;;;;;;;5.72;3.50;;;19.00;99.90;;;;;;4881471;29;20101;-86
2022/06/11 05:54:33;;;;;;;4.88;3.40;;;19.10;99.90;;;;;;4880967;29;20127;-78
2022/06/11 05:57:06;;;;;;;6.60;3.40;;;19.10;99.90;;;;;;4881580;29;20105;-81
2022/06/11 05:59:39;;;;;;;5.32;3.28;;;19.20;99.90;;;;;;4881331;29;20378;-80
2022/06/11 06:02:10;;;;;;;4.45;2.75;;;19.30;99.90;;;;;;4881442;29;20387;-86
2022/06/11 06:04:38;;;;;;;4.28;2.88;;;19.40;99.90;;;;;;4882358;29;20062;-89
2022/06/11 06:07:07;;;;;;;7.40;2.92;;;19.40;99.90;;;;;;4882359;29;20524;-86
2022/06/11 06:09:35;;;;;;;5.07;3.13;;;19.50;99.90;;;;;;4881412;29;20121;-83
2022/06/11 06:12:04;;;;;;;4.32;2.67;;;19.50;99.90;;;;;;4882535;29;20061;-87
2022/06/11 06:14:32;;;;;;;4.72;2.92;;;19.50;99.90;;;;;;4882516;29;20084;-87
2022/06/11 06:16:59;;;;;;;4.93;2.58;;;19.50;99.90;;;;;;4882127;29;20532;-87
2022/06/11 06:19:46;;;;;;;4.47;2.80;;;19.50;99.90;;;;;;4881975;29;20146;-88
2022/06/11 06:22:13;;;;;;;4.40;2.70;;;19.60;99.90;;;;;;4881960;29;20049;-86
2022/06/11 06:24:47;;;;;;;5.43;2.92;;;19.60;99.90;;;;;;4883012;29;20045;-87
2022/06/11 06:27:14;;;;;;;5.10;3.13;;;19.70;99.90;;;;;;4882312;29;20043;-83
2022/06/11 06:29:42;;;;;;;4.25;2.80;;;19.70;99.90;;;;;;4880286;29;20621;-91
2022/06/11 06:32:09;;;;;;;4.82;2.90;;;19.70;99.90;;;;;;4881350;29;20048;-90
2022/06/11 06:34:37;;;;;;;4.63;3.13;;;19.60;99.90;;;;;;4881964;29;20069;-91
2022/06/11 06:37:04;;;;;;;5.32;2.60;;;19.70;99.90;;;;;;4881830;29;20045;-91
2022/06/11 06:39:32;;;;;;;4.18;2.67;;;19.70;99.90;;;;;;4882236;29;20454;-85
2022/06/11 06:41:59;;;;;;;4.43;2.75;;;19.70;99.90;;;;;;4882259;29;20041;-92
2022/06/11 06:44:27;;;;;;;5.63;3.00;;;19.70;99.90;;;;;;4881801;29;20105;-90
2022/06/11 06:46:55;;;;;;;4.28;2.75;;;19.60;99.90;;;;;;4882336;29;20646;-91
2022/06/11 06:49:23;;;;;;;5.40;3.05;;;19.70;99.90;;;;;;4881837;29;20450;-92
2022/06/11 06:51:50;;;;;;;7.60;4.38;;;19.70;99.90;;;;;;4881502;29;20090;-91
2022/06/11 06:54:18;;;;;;;4.47;2.72;;;19.60;99.90;;;;;;4881286;29;20112;-93
2022/06/11 06:56:45;;;;;;;4.38;2.60;;;19.70;99.90;;;;;;4881896;29;20049;-91
2022/06/11 06:59:13;;;;;;;4.28;2.80;;;19.70;99.90;;;;;;4883314;29;20410;-94
2022/06/11 07:01:40;;;;;;;4.60;2.80;;;19.60;99.90;;;;;;4882398;29;20371;-79
2022/06/11 07:04:08;;;;;;;4.35;2.78;;;19.70;99.90;;;;;;4879334;29;20045;-79
2022/06/11 07:06:53;;;;;;;5.18;3.05;;;19.60;99.90;;;;;;4880139;29;20605;-78
2022/06/11 07:09:20;;;;;;;4.38;2.63;;;19.60;99.90;;;;;;4879292;29;20052;-78
2022/06/11 07:11:48;;;;;;;4.05;2.67;;;19.70;99.90;;;;;;4879569;29;20083;-80
2022/06/11 07:14:15;;;;;;;8.30;3.22;;;19.70;99.90;;;;;;4878781;29;20057;-79
2022/06/11 07:16:47;;;;;;;5.25;2.88;;;19.70;99.90;;;;;;4880249;29;20359;-88
2022/06/11 07:19:23;;;;;;;4.30;2.60;;;19.60;99.90;;;;;;4880104;29;20076;-81
2022/06/11 07:21:55;;;;;;;5.18;3.20;;;19.70;99.90;;;;;;4880157;29;20041;-78
2022/06/11 07:24:27;;;;;;;4.45;2.90;;;19.60;99.90;;;;;;4880163;29;20037;-76
2022/06/11 07:26:59;;;;;;;6.63;3.00;;;19.60;99.90;;;;;;4880218;29;20098;-80
2022/06/11 07:29:35;;;;;;;4.88;2.85;;;19.60;99.90;;;;;;4879731;29;20505;-82
2022/06/11 07:32:10;;;;;;;5.45;2.92;;;19.60;99.90;;;;;;4880153;29;20044;-81
2022/06/11 07:34:37;;;;;;;5.30;2.85;;;19.70;99.90;;;;;;4879970;29;20474;-89
2022/06/11 07:37:05;;;;;;;4.28;2.90;;;19.70;99.90;;;;;;4880487;29;20651;-80
2022/06/11 07:39:34;;;;;;;5.13;2.90;;;19.60;99.90;;;;;;4880592;29;20125;-89
2022/06/11 07:42:03;;;;;;;5.03;3.20;;;19.60;99.90;;;;;;4881054;29;20073;-89
2022/06/11 07:44:42;;;;;;;6.22;3.20;;;19.60;99.90;;;;;;4880441;29;20045;-89
2022/06/11 07:47:09;;;;;;;11.25;7.20;;;19.60;99.90;;;;;;4845447;29;20494;-86
2022/06/11 07:49:53;;;;;;;9.80;7.22;;;19.60;99.90;;;;;;4860253;29;20045;-89
2022/06/11 07:57:10;;;;;;;48.92;31.00;;;19.60;99.90;;;;;;4860791;29;20044;-83
2022/06/11 08:03:24;;;;;;;12.32;8.75;;;19.70;99.90;;;;;;6017114;23;21108;-86
2022/06/11 08:05:52;;;;;;;10.88;7.35;;;19.80;99.90;;;;;;4839296;29;20041;-86
2022/06/11 08:08:21;;;;;;;5.88;4.10;;;19.80;99.90;;;;;;4841074;29;20042;-86
2022/06/11 08:10:49;;;;;;;6.47;4.22;;;19.70;99.90;;;;;;4841465;29;20486;-84
2022/06/11 08:13:17;;;;;;;7.22;5.13;;;19.60;99.90;;;;;;4830921;29;20061;-88
2022/06/11 08:15:47;;;;;;;6.95;4.05;;;19.40;99.90;;;;;;4829476;29;20043;-81
2022/06/11 08:18:17;;;;;;;6.55;4.90;;;19.40;99.90;;;;;;4832903;29;20399;-84
2022/06/11 08:20:46;;;;;;;6.45;4.22;;;19.30;99.90;;;;;;4833194;29;20073;-84
2022/06/11 08:23:14;;;;;;;7.90;4.72;;;19.30;99.90;;;;;;4832128;29;20662;-85
2022/06/11 08:25:41;;;;;;;6.20;4.18;;;19.40;99.90;;;;;;4823532;29;20042;-83
2022/06/11 08:28:12;;;;;;;7.07;4.35;;;19.40;99.90;;;;;;4833054;29;20034;-87
2022/06/11 08:30:40;;;;;;;5.45;3.88;;;19.40;99.90;;;;;;4830557;29;20126;-84
2022/06/11 08:33:08;;;;;;;5.35;4.07;;;19.30;99.90;;;;;;4831295;29;20110;-83
2022/06/11 08:35:37;;;;;;;6.47;4.75;;;19.30;99.90;;;;;;4830422;29;20090;-84
2022/06/11 08:38:05;;;;;;;6.50;4.68;;;19.30;99.90;;;;;;4830723;29;20343;-82
2022/06/11 08:40:40;;;;;;;6.35;4.90;;;19.30;99.90;;;;;;4830817;29;20070;-86
2022/06/11 08:43:23;;;;;;;41.03;29.90;;;19.40;99.90;;;;;;4825755;29;20045;-94
2022/06/11 08:46:01;;;;;;;111.95;79.45;;;19.60;99.90;;;;;;4835263;29;20038;-92
2022/06/11 08:49:13;;;;;;;30.35;22.30;;;19.80;99.90;;;;;;4824164;29;20042;-87
2022/06/11 08:51:45;;;;;;;7.65;5.25;;;19.70;99.90;;;;;;4835943;29;20116;-79
2022/06/11 08:54:36;;;;;;;7.00;5.07;;;19.30;99.90;;;;;;4831495;29;20041;-75
2022/06/11 08:57:32;;;;;;;7.18;5.50;;;19.00;99.90;;;;;;4834309;29;20038;-85
2022/06/11 09:00:20;;;;;;;9.55;5.45;;;18.90;99.90;;;;;;4828295;29;20413;-82
2022/06/11 09:03:02;;;;;;;6.70;5.28;;;18.80;99.90;;;;;;4828474;29;20581;-91
2022/06/11 09:05:40;;;;;;;7.38;5.65;;;18.70;99.90;;;;;;4861614;29;20382;-85
2022/06/11 09:08:34;;;;;;;7.28;5.65;;;18.70;99.90;;;;;;4841035;29;20050;-87
2022/06/11 09:11:21;;;;;;;9.88;6.03;;;18.70;99.90;;;;;;4842453;29;20125;-76
2022/06/11 09:13:57;;;;;;;10.48;5.78;;;18.60;99.90;;;;;;4849051;29;20065;-78
2022/06/11 09:16:44;;;;;;;8.25;5.55;;;18.60;99.90;;;;;;4841855;29;20086;-76
2022/06/11 09:19:33;;;;;;;10.00;6.13;;;18.60;99.90;;;;;;4848342;29;20044;-78
2022/06/11 09:22:07;;;;;;;7.95;5.40;;;18.60;99.90;;;;;;4843343;29;20109;-79
2022/06/11 09:24:45;;;;;;;11.23;6.25;;;18.70;99.90;;;;;;4845220;29;20037;-77
2022/06/11 09:27:27;;;;;;;9.73;5.95;;;18.80;99.90;;;;;;4850945;29;20038;-84
2022/06/11 09:30:06;;;;;;;9.40;6.03;;;18.80;99.90;;;;;;4846788;29;20042;-84
2022/06/11 09:32:51;;;;;;;9.88;6.32;;;18.90;99.90;;;;;;4860401;29;20041;-81
2022/06/11 09:35:43;;;;;;;41.85;27.00;;;18.90;99.90;;;;;;4845548;29;20114;-88
2022/06/11 09:38:19;;;;;;;24.55;16.90;;;19.00;99.90;;;;;;4841439;29;20435;-83
2022/06/11 09:40:54;;;;;;;10.35;7.07;;;19.10;99.90;;;;;;4841277;29;20563;-82
2022/06/11 09:43:26;;;;;;;8.88;6.25;;;19.10;99.90;;;;;;4839529;29;20042;-80
2022/06/11 09:45:59;;;;;;;9.80;6.70;;;19.10;99.90;;;;;;4841313;29;20119;-82
2022/06/11 09:48:53;;;;;;;50.63;32.72;;;19.10;99.90;;;;;;4841159;29;20479;-78
2022/06/11 09:51:37;;;;;;;11.20;8.05;;;19.20;99.90;;;;;;4816061;29;20056;-86
2022/06/11 09:54:33;;;;;;;9.70;6.82;;;19.10;99.90;;;;;;4841039;29;20395;-85
2022/06/11 09:57:19;;;;;;;11.30;7.68;;;18.90;99.90;;;;;;4843220;29;20073;-76
2022/06/11 09:59:55;;;;;;;11.38;6.18;;;18.60;99.90;;;;;;4839525;29;20562;-77
2022/06/11 10:05:26;;;;;;;16.38;13.40;;;18.40;99.90;;;;;;4848429;29;20053;-81
2022/06/11 10:08:03;;;;;;;14.05;9.18;;;18.40;99.90;;;;;;4849965;29;20038;-76
2022/06/11 10:10:35;;;;;;;11.40;7.57;;;18.40;99.90;;;;;;4845062;29;20431;-82
2022/06/11 10:13:14;;;;;;;10.75;7.72;;;18.50;99.90;;;;;;4844827;29;20134;-77
2022/06/11 10:15:46;;;;;;;11.25;8.45;;;18.60;99.90;;;;;;4856219;29;20177;-81
2022/06/11 10:18:36;;;;;;;10.40;7.68;;;18.80;99.90;;;;;;4849736;29;20053;-82
2022/06/11 10:21:09;;;;;;;13.80;10.55;;;18.90;99.90;;;;;;4828022;29;20073;-80
2022/06/11 10:23:42;;;;;;;12.88;8.63;;;19.00;99.90;;;;;;4843311;29;20046;-82
2022/06/11 10:26:13;;;;;;;11.23;9.32;;;19.00;99.90;;;;;;4843594;29;20110;-87
2022/06/11 10:29:08;;;;;;;14.45;10.73;;;19.10;99.90;;;;;;4844303;29;20065;-84
2022/06/11 10:31:53;;;;;;;11.05;9.25;;;19.10;99.90;;;;;;4843658;29;20551;-82
2022/06/11 10:34:44;;;;;;;13.80;9.40;;;19.10;99.90;;;;;;4843295;29;20075;-80
2022/06/11 10:37:45;;;;;;;12.75;7.75;;;19.10;99.90;;;;;;4842693;29;20069;-87
2022/06/11 10:40:21;;;;;;;13.15;9.93;;;19.10;99.90;;;;;;4795911;29;20674;-83
2022/06/11 10:43:10;;;;;;;15.27;10.32;;;19.20;99.90;;;;;;4842634;29;20050;-85
2022/06/11 10:45:38;;;;;;;19.90;14.07;;;19.30;99.90;;;;;;4848366;29;20377;-85
2022/06/11 10:48:15;;;;;;;11.23;8.52;;;19.20;99.90;;;;;;4861001;29;20053;-83
2022/06/11 10:50:45;;;;;;;13.07;8.45;;;19.00;99.90;;;;;;4862147;29;20452;-85
2022/06/11 10:53:28;;;;;;;12.13;9.43;;;19.00;99.90;;;;;;4861726;29;20034;-83
2022/06/11 10:56:04;;;;;;;12.20;8.15;;;19.10;99.90;;;;;;4861457;29;20106;-74
2022/06/11 10:58:49;;;;;;;12.45;7.93;;;19.10;99.90;;;;;;4860856;29;20037;-77
2022/06/11 11:01:37;;;;;;;11.52;8.48;;;19.20;99.90;;;;;;4852482;29;20041;-88
2022/06/11 11:04:14;;;;;;;10.95;8.23;;;19.30;99.90;;;;;;4853281;29;20056;-84
2022/06/11 11:06:42;;;;;;;13.90;8.15;;;19.10;99.90;;;;;;4852737;29;20115;-78
2022/06/11 11:09:24;;;;;;;10.75;8.95;;;19.10;99.90;;;;;;4861006;29;20042;-82
2022/06/11 11:11:57;;;;;;;11.57;9.05;;;19.20;99.90;;;;;;4860579;29;20049;-82
2022/06/11 11:14:41;;;;;;;12.10;8.23;;;19.50;99.90;;;;;;4859692;29;20065;-82
2022/06/11 11:17:17;;;;;;;12.80;9.10;;;19.50;99.90;;;;;;4843157;29;20042;-84
2022/06/11 11:20:29;;;;;;;13.35;9.00;;;19.50;99.90;;;;;;4841045;29;20434;-84
2022/06/11 11:22:42;;;;;;;11.07;8.32;;;19.70;99.90;;;;;;4840917;29;20044;-78
2022/06/11 11:25:18;;;;;;;11.93;8.32;;;20.00;99.90;;;;;;4840832;29;20482;-79
2022/06/11 11:27:50;;;;;;;11.30;9.00;;;20.10;99.90;;;;;;4841214;29;20117;-77
2022/06/11 11:30:17;;;;;;;13.18;9.50;;;20.10;99.90;;;;;;4841061;29;20123;-82
2022/06/11 11:32:47;;;;;;;12.35;9.30;;;20.30;99.90;;;;;;4841283;29;20046;-82
2022/06/11 11:35:22;;;;;;;15.23;10.18;;;19.80;99.90;;;;;;4842329;29;20068;-79
2022/06/11 11:38:14;;;;;;;13.02;10.18;;;19.70;99.90;;;;;;4842149;29;20434;-78
2022/06/11 11:40:53;;;;;;;11.48;9.13;;;19.70;99.90;;;;;;4847475;29;20097;-78
2022/06/11 11:43:23;;;;;;;17.13;10.60;;;19.60;99.90;;;;;;4860498;29;20502;-83
2022/06/11 11:46:00;;;;;;;14.90;9.43;;;19.70;99.90;;;;;;4858437;29;20041;-83
2022/06/11 11:48:36;;;;;;;13.80;9.43;;;19.70;99.90;;;;;;4858583;29;20049;-77
2022/06/11 11:51:07;;;;;;;15.85;10.27;;;19.70;99.90;;;;;;4857745;29;20451;-83
2022/06/11 11:53:51;;;;;;;13.77;9.05;;;19.80;99.90;;;;;;4860228;29;20068;-81
2022/06/11 11:56:58;;;;;;;11.70;8.48;;;19.70;99.90;;;;;;4852470;29;20493;-87
2022/06/11 11:59:46;;;;;;;10.93;8.32;;;19.80;99.90;;;;;;4842099;29;20149;-83
2022/06/11 12:02:24;;;;;;;11.05;8.75;;;19.90;99.90;;;;;;4842285;29;20037;-83
2022/06/11 12:04:51;;;;;;;12.52;8.73;;;20.00;99.90;;;;;;4841453;29;20049;-81
2022/06/11 12:07:30;;;;;;;12.25;8.68;;;19.90;99.90;;;;;;4844928;29;20082;-84
2022/06/11 12:10:21;;;;;;;13.52;9.23;;;19.90;99.90;;;;;;4847253;29;20037;-82
2022/06/11 12:12:51;;;;;;;13.00;8.82;;;20.00;99.90;;;;;;4850831;29;20592;-76
2022/06/11 12:15:31;;;;;;;17.00;9.85;;;19.90;99.90;;;;;;4849241;29;20056;-80
2022/06/11 12:18:16;;;;;;;12.38;8.80;;;20.00;99.90;;;;;;4849572;29;20086;-82
2022/06/11 12:20:54;;;;;;;12.20;8.90;;;20.00;99.90;;;;;;4849090;29;20501;-80
2022/06/11 12:23:42;;;;;;;12.93;9.38;;;20.00;99.90;;;;;;4851486;29;20072;-77
2022/06/11 12:26:18;;;;;;;13.00;9.15;;;20.00;99.90;;;;;;4849053;29;20037;-84
2022/06/11 12:28:52;;;;;;;13.13;9.05;;;20.30;99.90;;;;;;4847277;29;20037;-86
2022/06/11 12:31:20;;;;;;;12.45;8.30;;;20.30;99.90;;;;;;4849766;29;20062;-83
2022/06/11 12:33:51;;;;;;;11.38;8.55;;;20.00;99.90;;;;;;4841493;29;20042;-80
2022/06/11 12:36:43;;;;;;;12.55;8.18;;;19.90;99.90;;;;;;4843206;29;20063;-82
2022/06/11 12:39:34;;;;;;;12.00;7.65;;;19.90;99.90;;;;;;4872797;29;20125;-82
2022/06/11 12:42:42;;;;;;;12.23;8.32;;;19.80;99.90;;;;;;4848799;29;20413;-82
2022/06/11 12:45:24;;;;;;;11.48;8.85;;;19.80;99.90;;;;;;4841400;29;20505;-86
2022/06/11 12:48:16;;;;;;;10.77;8.85;;;20.00;99.90;;;;;;4854849;29;20538;-85
2022/06/11 12:50:53;;;;;;;11.65;8.50;;;19.90;99.90;;;;;;4826133;29;20502;-86
2022/06/11 12:53:34;;;;;;;11.48;8.52;;;20.10;99.90;;;;;;4842269;29;20045;-89
2022/06/11 12:56:11;;;;;;;15.57;10.57;;;19.90;99.90;;;;;;4846025;29;20072;-85
2022/06/11 12:59:02;;;;;;;16.17;10.25;;;20.00;99.90;;;;;;4844212;29;20439;-86
2022/06/11 13:01:36;;;;;;;10.93;8.27;;;20.10;99.90;;;;;;4845094;29;20037;-83
2022/06/11 13:04:41;;;;;;;12.52;8.68;;;20.10;99.90;;;;;;4842005;29;20132;-87
2022/06/11 13:07:08;;;;;;;10.65;8.30;;;20.00;99.90;;;;;;4842541;29;20042;-87
2022/06/11 13:09:54;;;;;;;14.05;9.35;;;20.10;99.90;;;;;;4859117;29;20450;-80
2022/06/11 13:12:26;;;;;;;14.80;8.25;;;20.30;99.90;;;;;;4827340;29;20054;-78
2022/06/11 13:15:18;;;;;;;10.88;7.47;;;20.20;99.90;;;;;;4845346;29;20042;-85
2022/06/11 13:18:11;;;;;;;10.80;8.00;;;20.10;99.90;;;;;;4863219;29;20050;-91
2022/06/11 13:21:01;;;;;;;12.07;8.00;;;20.50;99.90;;;;;;4866253;29;20066;-91
2022/06/11 13:23:34;;;;;;;12.57;7.18;;;20.40;99.90;;;;;;4859877;29;20053;-87
2022/06/11 13:26:17;;;;;;;10.75;7.60;;;20.30;99.90;;;;;;4843485;29;20121;-79
2022/06/11 13:29:29;;;;;;;9.90;6.85;;;20.30;99.90;;;;;;4841726;29;20054;-94
2022/06/11 13:32:10;;;;;;;10.57;7.82;;;20.20;99.90;;;;;;4840991;29;20110;-87
2022/06/11 13:34:56;;;;;;;18.65;13.73;;;20.20;99.90;;;;;;4841682;29;20090;-84
2022/06/11 13:37:52;;;;;;;15.02;10.65;;;20.10;99.90;;;;;;4842352;29;20058;-87